Terminal Aerodrome Forecast
Issued by NWS Houston/Galveston TX

Home | Current Version | Previous Version | Text Only | Print | Product List | Glossary On
Versions: 1 2 3 4 5 6 7 8 9 10 11 12 13 14 15 16 17 18 19 20 21 22 23 24 25 26 27 28 29 30 31 32 33 34 35 36 37 38 39 40 41 42 43 44 45 46 47 48 49 50
000
FTUS44 KHGX 031452 AAA
TAFHOU
TAF AMD
KHOU 031452Z 0315/0412 00000KT 1/4SM FG VV002
     FM031600 15007KT 3SM BR OVC004
     FM031800 16010KT P6SM SCT007 OVC011
     FM032100 17011KT P6SM BKN015 OVC025
     FM040300 15007KT 4SM BR OVC009
     FM040800 15006KT 2SM BR BKN004 OVC008=

USA.gov is the U.S. government's official web portal to all federal, state and local government web resources and services.